Time;durP1;ratioP1;P1;durP2;ratioP2;P2;SDS_P1;SDS_P2;PMS_P1;PMS_P2;Temp;Humidity;BMP_temperature;BMP_pressure;BME280_temperature;BME280_humidity;BME280_pressure;Samples;Min_cycle;Max_cycle;Signal;HPM_P1;HPM_P2
2023/07/01 00:00:57;;;;;;;6.03;3.50;;;18.10;99.90;;;;;;5045448;28;20034;-71
2023/07/01 00:03:23;;;;;;;9.05;3.40;;;17.90;99.90;;;;;;5045796;28;20030;-73
2023/07/01 00:05:49;;;;;;;8.18;3.72;;;18.00;99.90;;;;;;5045753;28;20041;-72
2023/07/01 00:08:14;;;;;;;6.43;3.38;;;18.00;99.90;;;;;;5044337;28;20021;-72
2023/07/01 00:10:40;;;;;;;7.72;3.47;;;17.90;99.90;;;;;;5044617;28;20029;-72
2023/07/01 00:13:05;;;;;;;5.63;3.28;;;18.00;99.90;;;;;;5043137;28;20060;-72
2023/07/01 00:15:31;;;;;;;5.43;3.50;;;18.00;99.90;;;;;;5044999;28;20394;-72
2023/07/01 00:17:57;;;;;;;7.47;3.60;;;17.90;99.90;;;;;;5045479;28;20108;-69
2023/07/01 00:20:24;;;;;;;6.95;3.15;;;18.00;99.90;;;;;;5045205;28;20037;-70
2023/07/01 00:22:50;;;;;;;8.98;3.20;;;18.00;99.90;;;;;;5045500;28;20071;-69
2023/07/01 00:25:15;;;;;;;5.97;3.40;;;18.00;99.90;;;;;;5044357;28;20025;-72
2023/07/01 00:27:41;;;;;;;5.90;3.58;;;17.90;99.90;;;;;;5045147;28;20498;-71
2023/07/01 00:30:08;;;;;;;8.13;3.28;;;18.00;99.90;;;;;;5045711;28;20017;-72
2023/07/01 00:32:33;;;;;;;7.40;3.47;;;17.90;99.90;;;;;;5044578;28;20060;-70
2023/07/01 00:34:59;;;;;;;6.75;3.17;;;17.90;99.90;;;;;;5044122;28;20026;-70
2023/07/01 00:37:24;;;;;;;9.45;3.58;;;17.90;99.90;;;;;;5044520;28;20474;-71
2023/07/01 00:39:50;;;;;;;8.63;3.50;;;17.90;99.90;;;;;;5044449;28;20109;-71
2023/07/01 00:42:15;;;;;;;8.68;3.42;;;17.80;99.90;;;;;;5044276;28;20026;-71
2023/07/01 00:44:41;;;;;;;9.02;3.80;;;17.90;99.90;;;;;;5045354;28;20029;-71
2023/07/01 00:47:07;;;;;;;8.70;3.28;;;17.90;99.90;;;;;;5031334;28;20505;-71
2023/07/01 00:49:33;;;;;;;7.03;3.70;;;17.90;99.90;;;;;;5044702;28;20025;-70
2023/07/01 00:52:00;;;;;;;6.38;3.70;;;17.90;99.90;;;;;;5039767;28;20029;-71
2023/07/01 00:54:26;;;;;;;5.07;3.47;;;17.90;99.90;;;;;;5044630;28;20026;-71
2023/07/01 00:56:52;;;;;;;8.88;3.40;;;17.80;99.90;;;;;;5044522;28;20029;-71
2023/07/01 00:59:18;;;;;;;8.15;4.10;;;17.90;99.90;;;;;;5043570;28;20025;-69
2023/07/01 01:01:47;;;;;;;8.15;4.03;;;17.80;99.90;;;;;;5044587;28;20394;-70
2023/07/01 01:04:44;;;;;;;8.55;3.90;;;17.80;99.90;;;;;;5044640;28;20018;-71
2023/07/01 01:07:39;;;;;;;6.80;3.58;;;17.80;99.90;;;;;;5044893;28;20413;-71
2023/07/01 01:10:10;;;;;;;;;;;17.80;99.90;;;;;;5043182;28;20036;-73
2023/07/01 01:12:38;;;;;;;9.02;3.85;;;17.80;99.90;;;;;;5044740;28;19963;-70
2023/07/01 01:15:05;;;;;;;8.65;3.85;;;17.80;99.90;;;;;;5044371;28;20025;-71
2023/07/01 01:17:35;;;;;;;10.35;4.05;;;17.80;99.90;;;;;;5043305;28;20033;-70
2023/07/01 01:20:16;;;;;;;7.72;3.40;;;17.80;99.90;;;;;;5044803;28;20089;-70
2023/07/01 01:23:07;;;;;;;7.32;3.70;;;17.70;99.90;;;;;;5044141;28;20022;-72
2023/07/01 01:25:42;;;;;;;7.38;4.13;;;17.70;99.90;;;;;;5044437;28;20378;-70
2023/07/01 01:28:09;;;;;;;8.57;3.80;;;17.70;99.90;;;;;;5044944;28;20021;-72
2023/07/01 01:30:34;;;;;;;8.18;3.75;;;17.70;99.90;;;;;;5044339;28;20040;-70
2023/07/01 01:33:01;;;;;;;8.68;4.07;;;17.70;99.90;;;;;;5044576;28;20034;-70
2023/07/01 01:35:27;;;;;;;6.60;3.78;;;17.70;99.90;;;;;;5044228;28;20037;-69
2023/07/01 01:38:04;;;;;;;6.82;4.22;;;17.70;99.90;;;;;;5044560;28;20029;-71
2023/07/01 01:40:58;;;;;;;7.03;4.30;;;17.70;99.90;;;;;;5043221;28;20060;-71
2023/07/01 01:43:48;;;;;;;8.63;4.10;;;17.60;99.90;;;;;;5042118;28;20042;-71
2023/07/01 01:46:15;;;;;;;7.20;4.05;;;17.70;99.90;;;;;;5044517;28;20063;-72
2023/07/01 01:48:41;;;;;;;8.43;4.47;;;17.70;99.90;;;;;;5044428;28;20026;-70
2023/07/01 01:51:08;;;;;;;7.30;3.85;;;17.70;99.90;;;;;;5044426;28;20022;-70
2023/07/01 01:53:36;;;;;;;8.43;4.57;;;17.60;99.90;;;;;;5044499;28;20094;-69
2023/07/01 01:56:02;;;;;;;8.65;4.50;;;17.60;99.90;;;;;;5044168;28;20057;-70
2023/07/01 01:58:28;;;;;;;5.05;3.78;;;17.60;99.90;;;;;;5043800;28;20041;-71
2023/07/01 02:00:54;;;;;;;10.63;4.40;;;17.50;99.90;;;;;;5042995;28;20017;-70
2023/07/01 02:03:19;;;;;;;6.70;4.20;;;17.60;99.90;;;;;;5044066;28;20025;-70
2023/07/01 02:05:45;;;;;;;5.97;3.85;;;17.60;99.90;;;;;;5043806;28;20120;-71
2023/07/01 02:08:10;;;;;;;9.07;4.38;;;17.60;99.90;;;;;;5046489;28;20032;-73
2023/07/01 02:10:36;;;;;;;7.25;4.10;;;17.60;99.90;;;;;;5046509;28;20025;-74
2023/07/01 02:13:02;;;;;;;9.82;4.45;;;17.60;99.90;;;;;;5029713;28;20039;-71
2023/07/01 02:15:28;;;;;;;8.18;4.07;;;17.50;99.90;;;;;;5030040;28;20030;-70
2023/07/01 02:17:54;;;;;;;10.20;4.10;;;17.50;99.90;;;;;;5029874;28;20025;-70
2023/07/01 02:20:23;;;;;;;8.77;4.50;;;17.40;99.90;;;;;;5047474;28;20033;-74
2023/07/01 02:22:48;;;;;;;8.10;4.53;;;17.50;99.90;;;;;;5029905;28;20026;-73
2023/07/01 02:25:14;;;;;;;9.23;4.45;;;17.40;99.90;;;;;;5047642;28;20092;-71
2023/07/01 02:27:40;;;;;;;9.10;4.60;;;17.40;99.90;;;;;;5029700;28;20040;-70
2023/07/01 02:30:07;;;;;;;13.02;4.93;;;17.40;99.90;;;;;;5047892;28;20029;-70
2023/07/01 02:32:32;;;;;;;7.55;4.22;;;17.40;99.90;;;;;;5047317;28;20056;-71
2023/07/01 02:34:58;;;;;;;6.90;4.57;;;17.40;99.90;;;;;;5047506;28;20025;-70
2023/07/01 02:37:23;;;;;;;7.20;4.57;;;17.40;99.90;;;;;;5029539;28;20022;-73
2023/07/01 02:39:49;;;;;;;11.10;5.70;;;17.30;99.90;;;;;;5025638;28;20522;-72
2023/07/01 02:42:19;;;;;;;6.47;4.88;;;17.40;99.90;;;;;;5026089;28;20033;-71
2023/07/01 02:44:49;;;;;;;8.50;5.05;;;17.40;99.90;;;;;;5027988;28;20109;-73
2023/07/01 02:47:15;;;;;;;8.35;4.93;;;17.30;99.90;;;;;;5025857;28;20042;-71
2023/07/01 02:49:40;;;;;;;11.07;4.88;;;17.30;99.90;;;;;;5027562;28;20026;-71
2023/07/01 02:52:08;;;;;;;10.70;4.45;;;17.30;99.90;;;;;;5027647;28;20502;-71
2023/07/01 02:54:34;;;;;;;8.93;4.85;;;17.20;99.90;;;;;;5027048;28;20060;-72
2023/07/01 02:57:00;;;;;;;11.30;5.15;;;17.20;99.90;;;;;;5025845;28;20034;-70
2023/07/01 02:59:25;;;;;;;8.48;5.00;;;17.20;99.90;;;;;;5027280;28;20057;-71
2023/07/01 03:01:51;;;;;;;9.40;4.90;;;17.20;99.90;;;;;;5027165;28;20116;-70
2023/07/01 03:04:17;;;;;;;9.07;4.95;;;17.20;99.90;;;;;;5027375;28;20029;-71
2023/07/01 03:06:42;;;;;;;8.57;4.70;;;17.20;99.90;;;;;;5026777;28;20042;-73
2023/07/01 03:09:08;;;;;;;8.60;4.88;;;17.10;99.90;;;;;;5026918;28;20156;-73
2023/07/01 03:11:36;;;;;;;9.68;4.88;;;17.20;99.90;;;;;;5027095;28;20034;-71
2023/07/01 03:14:02;;;;;;;11.57;5.30;;;17.20;99.90;;;;;;5027075;28;20034;-73
2023/07/01 03:16:30;;;;;;;9.25;4.85;;;17.20;99.90;;;;;;5026714;28;20050;-71
2023/07/01 03:18:57;;;;;;;10.90;4.82;;;17.10;99.90;;;;;;5025433;28;20022;-72
2023/07/01 03:21:22;;;;;;;7.07;5.30;;;17.20;99.90;;;;;;5026733;28;20029;-71
2023/07/01 03:23:48;;;;;;;13.35;5.47;;;17.10;99.90;;;;;;5026579;28;20021;-72
2023/07/01 03:26:13;;;;;;;10.23;5.80;;;17.10;99.90;;;;;;5025468;28;20030;-70
2023/07/01 03:28:39;;;;;;;9.18;5.63;;;17.10;99.90;;;;;;5025585;28;20022;-72
2023/07/01 03:31:04;;;;;;;8.88;5.40;;;17.10;99.90;;;;;;5025312;28;20034;-72
2023/07/01 03:33:30;;;;;;;10.63;5.47;;;17.10;99.90;;;;;;5025168;28;20068;-71
2023/07/01 03:35:55;;;;;;;13.30;5.88;;;17.10;99.90;;;;;;5015171;28;20027;-72
2023/07/01 03:38:22;;;;;;;8.70;4.85;;;17.10;99.90;;;;;;5024729;28;20042;-70
2023/07/01 03:40:47;;;;;;;10.20;5.22;;;17.10;99.90;;;;;;5025348;28;20093;-72
2023/07/01 03:43:13;;;;;;;10.77;5.65;;;17.20;99.90;;;;;;5028341;28;20017;-73
2023/07/01 03:45:38;;;;;;;15.45;5.80;;;17.00;99.90;;;;;;5045978;28;20051;-71
2023/07/01 03:48:05;;;;;;;12.05;5.30;;;17.10;99.90;;;;;;5046206;28;20391;-70
2023/07/01 03:50:30;;;;;;;11.68;5.53;;;17.10;99.90;;;;;;5045893;28;20029;-73
2023/07/01 03:52:56;;;;;;;10.18;5.28;;;17.00;99.90;;;;;;5027831;28;20026;-73
2023/07/01 03:55:22;;;;;;;8.68;5.07;;;17.00;99.90;;;;;;5045793;28;20033;-72
2023/07/01 03:57:47;;;;;;;11.48;5.10;;;17.00;99.90;;;;;;5027825;28;20060;-72
2023/07/01 04:00:19;;;;;;;8.60;5.38;;;17.10;99.90;;;;;;5046049;28;20029;-71
2023/07/01 04:02:46;;;;;;;7.75;5.43;;;17.00;99.90;;;;;;5045814;28;20176;-72
2023/07/01 04:05:12;;;;;;;10.18;5.63;;;17.00;99.90;;;;;;5045515;28;20034;-74
2023/07/01 04:07:41;;;;;;;13.18;5.45;;;17.00;99.90;;;;;;5027948;28;20036;-72
2023/07/01 04:10:08;;;;;;;8.45;5.70;;;17.00;99.90;;;;;;5046083;28;20029;-75
2023/07/01 04:12:35;;;;;;;12.60;6.05;;;17.00;99.90;;;;;;5027650;28;20041;-71
2023/07/01 04:15:01;;;;;;;13.48;5.78;;;17.00;99.90;;;;;;5045168;28;20056;-74
2023/07/01 04:17:30;;;;;;;11.10;5.68;;;17.00;99.90;;;;;;5045561;28;20433;-72
2023/07/01 04:19:56;;;;;;;12.48;6.18;;;17.10;99.90;;;;;;5045160;28;20030;-71
2023/07/01 04:22:25;;;;;;;9.43;5.90;;;16.90;99.90;;;;;;5045480;28;20040;-70
2023/07/01 04:24:50;;;;;;;13.50;6.22;;;17.00;99.90;;;;;;5045390;28;20029;-74
2023/07/01 04:27:16;;;;;;;10.80;6.72;;;16.90;99.90;;;;;;5045201;28;20037;-75
2023/07/01 04:29:41;;;;;;;14.93;6.85;;;16.80;99.90;;;;;;5045449;28;20044;-76
2023/07/01 04:32:07;;;;;;;14.25;6.88;;;16.80;99.90;;;;;;5045258;28;20085;-71
2023/07/01 04:34:33;;;;;;;15.98;7.20;;;16.70;99.90;;;;;;5044791;28;20029;-73
2023/07/01 04:36:58;;;;;;;15.23;6.80;;;16.60;99.90;;;;;;5027420;28;20033;-73
2023/07/01 04:39:24;;;;;;;11.60;6.97;;;16.50;99.90;;;;;;5044938;28;20049;-71
2023/07/01 04:41:49;;;;;;;15.73;7.45;;;16.50;99.90;;;;;;5043705;28;20028;-72
2023/07/01 04:44:15;;;;;;;17.08;7.65;;;16.40;99.90;;;;;;5045214;28;20085;-73
2023/07/01 04:46:41;;;;;;;13.63;7.55;;;16.50;99.90;;;;;;5044062;28;20056;-73
2023/07/01 04:49:08;;;;;;;11.75;7.45;;;16.30;99.90;;;;;;5044736;28;20060;-72
2023/07/01 04:51:35;;;;;;;17.60;8.63;;;16.30;99.90;;;;;;5045299;28;20346;-70
2023/07/01 04:54:01;;;;;;;20.20;8.65;;;16.20;99.90;;;;;;5044654;28;20041;-71
2023/07/01 04:56:26;;;;;;;16.92;8.68;;;16.30;99.90;;;;;;5044673;28;20096;-70
2023/07/01 04:58:52;;;;;;;16.42;8.52;;;16.30;99.90;;;;;;5045025;28;20026;-70
2023/07/01 05:01:18;;;;;;;14.93;8.15;;;16.20;99.90;;;;;;5031531;28;20049;-71
2023/07/01 05:03:44;;;;;;;17.42;8.23;;;16.30;99.90;;;;;;5044706;28;20036;-71
2023/07/01 05:06:09;;;;;;;18.55;9.05;;;16.20;99.90;;;;;;5026268;28;20502;-72
2023/07/01 05:08:35;;;;;;;17.05;8.68;;;16.20;99.90;;;;;;5044543;28;20462;-72
2023/07/01 05:11:00;;;;;;;13.82;7.95;;;16.20;99.90;;;;;;5026777;28;20083;-70
2023/07/01 05:13:26;;;;;;;18.98;8.40;;;16.30;99.90;;;;;;5026935;28;20029;-69
2023/07/01 05:15:51;;;;;;;13.55;8.45;;;16.30;99.90;;;;;;5044285;28;20044;-70
2023/07/01 05:18:17;;;;;;;14.18;8.52;;;16.30;99.90;;;;;;5044483;28;20097;-75
2023/07/01 05:20:42;;;;;;;15.07;8.43;;;16.20;99.90;;;;;;5044792;28;20032;-71
2023/07/01 05:23:08;;;;;;;13.85;8.90;;;16.30;99.90;;;;;;5026649;28;20029;-74
2023/07/01 05:25:34;;;;;;;16.33;9.02;;;16.30;99.90;;;;;;5026502;28;20025;-71
2023/07/01 05:27:59;;;;;;;20.25;10.18;;;16.30;99.90;;;;;;5044467;28;20099;-73
2023/07/01 05:30:25;;;;;;;14.48;9.65;;;16.40;99.90;;;;;;5044030;28;20427;-69
2023/07/01 05:32:50;;;;;;;16.42;9.82;;;16.40;99.90;;;;;;5044360;28;20030;-71
2023/07/01 05:35:16;;;;;;;13.95;9.18;;;16.30;99.90;;;;;;5044438;28;20022;-73
2023/07/01 05:37:41;;;;;;;15.07;9.40;;;16.30;99.90;;;;;;5044136;28;20045;-70
2023/07/01 05:40:08;;;;;;;12.85;8.98;;;16.30;99.90;;;;;;5044386;28;20041;-70
2023/07/01 05:42:33;;;;;;;11.88;9.60;;;16.30;99.90;;;;;;5026710;28;20529;-70
2023/07/01 05:44:59;;;;;;;20.30;9.18;;;16.40;99.90;;;;;;5047887;28;20026;-69
2023/07/01 05:47:24;;;;;;;13.15;9.10;;;16.30;99.90;;;;;;5048429;28;20061;-69
2023/07/01 05:49:50;;;;;;;15.25;8.60;;;16.40;99.90;;;;;;5047128;28;20089;-71
2023/07/01 05:52:16;;;;;;;15.95;9.07;;;16.40;99.90;;;;;;5048127;28;20021;-71
2023/07/01 05:54:41;;;;;;;12.80;8.60;;;16.40;99.90;;;;;;5048856;28;20034;-69
2023/07/01 05:57:07;;;;;;;12.70;8.25;;;16.50;99.90;;;;;;5048320;28;20029;-72
2023/07/01 05:59:32;;;;;;;14.82;8.45;;;16.40;99.90;;;;;;5048505;28;20029;-72
2023/07/01 06:01:58;;;;;;;13.00;8.27;;;16.40;99.90;;;;;;5048430;28;20053;-69
2023/07/01 06:04:23;;;;;;;11.52;8.20;;;16.50;99.90;;;;;;5048012;28;20036;-75
2023/07/01 06:06:49;;;;;;;15.05;8.75;;;16.50;99.90;;;;;;5030064;28;20038;-71
2023/07/01 06:09:17;;;;;;;11.00;8.05;;;16.50;99.90;;;;;;5030515;28;20116;-72
2023/07/01 06:11:43;;;;;;;13.35;7.82;;;16.50;99.90;;;;;;5030476;28;20033;-69
2023/07/01 06:14:09;;;;;;;9.40;7.75;;;16.50;99.90;;;;;;5048321;28;20026;-70
2023/07/01 06:16:34;;;;;;;18.17;8.30;;;16.60;99.90;;;;;;5047710;28;20029;-70
2023/07/01 06:19:00;;;;;;;14.95;8.60;;;16.50;99.90;;;;;;5047633;28;20388;-70
2023/07/01 06:21:25;;;;;;;17.35;8.25;;;16.60;99.90;;;;;;5047894;28;20029;-69
2023/07/01 06:23:55;;;;;;;13.27;8.25;;;16.60;99.90;;;;;;5029952;28;20029;-69
2023/07/01 06:26:22;;;;;;;14.27;8.27;;;16.60;99.90;;;;;;5029113;28;20037;-69
2023/07/01 06:28:48;;;;;;;12.60;8.20;;;16.50;99.90;;;;;;5029495;28;20499;-70
2023/07/01 06:31:13;;;;;;;13.85;8.35;;;16.70;99.90;;;;;;5047312;28;20029;-69
2023/07/01 06:33:39;;;;;;;15.38;7.63;;;16.60;99.90;;;;;;5047426;28;20116;-72
2023/07/01 06:36:06;;;;;;;20.10;7.65;;;16.70;99.90;;;;;;5047736;28;20025;-70
2023/07/01 06:38:31;;;;;;;13.13;7.75;;;16.70;99.90;;;;;;5046877;28;20033;-73
2023/07/01 06:40:57;;;;;;;16.27;8.18;;;16.80;99.90;;;;;;5047386;28;20055;-72
2023/07/01 06:43:22;;;;;;;10.80;7.72;;;16.80;99.90;;;;;;5047654;28;20022;-73
2023/07/01 06:45:48;;;;;;;12.13;7.97;;;16.80;99.90;;;;;;5046892;28;20035;-69
2023/07/01 06:48:14;;;;;;;11.50;7.72;;;16.60;99.90;;;;;;5047351;28;20381;-75
2023/07/01 06:50:39;;;;;;;15.40;8.00;;;16.70;99.90;;;;;;5047539;28;20033;-72
2023/07/01 06:53:06;;;;;;;15.95;8.25;;;16.70;99.90;;;;;;5046747;28;20801;-70
2023/07/01 06:55:32;;;;;;;13.98;8.27;;;16.60;99.90;;;;;;5047199;28;20043;-70
2023/07/01 06:58:03;;;;;;;14.63;8.38;;;16.60;99.90;;;;;;5047245;28;20104;-71
2023/07/01 07:00:30;;;;;;;20.65;9.50;;;16.60;99.90;;;;;;5046661;28;20103;-70
2023/07/01 07:02:56;;;;;;;16.27;9.90;;;16.60;99.90;;;;;;5047142;28;20021;-68
2023/07/01 07:05:22;;;;;;;13.23;9.13;;;16.60;99.90;;;;;;5046978;28;20033;-69
2023/07/01 07:07:47;;;;;;;13.38;8.70;;;16.60;99.90;;;;;;5028721;28;20041;-69
2023/07/01 07:10:13;;;;;;;15.45;9.10;;;16.70;99.90;;;;;;5047147;28;20039;-69
2023/07/01 07:12:38;;;;;;;16.42;9.02;;;16.60;99.90;;;;;;5046845;28;20496;-67
2023/07/01 07:15:05;;;;;;;19.35;9.63;;;16.70;99.90;;;;;;5028886;28;20025;-69
2023/07/01 07:17:30;;;;;;;18.25;9.15;;;16.70;99.90;;;;;;5028991;28;20028;-71
2023/07/01 07:19:56;;;;;;;17.52;8.38;;;16.70;99.90;;;;;;5046283;28;20104;-70
2023/07/01 07:22:21;;;;;;;12.93;8.18;;;16.80;99.90;;;;;;5035851;28;20406;-69
2023/07/01 07:24:47;;;;;;;13.98;7.75;;;16.80;99.90;;;;;;5028835;28;20466;-68
2023/07/01 07:27:12;;;;;;;17.50;8.13;;;16.80;99.90;;;;;;5044844;28;20044;-73
2023/07/01 07:29:39;;;;;;;13.27;7.22;;;16.80;99.90;;;;;;5027850;28;20032;-71
2023/07/01 07:32:05;;;;;;;15.32;7.75;;;16.80;99.90;;;;;;5045829;28;20028;-72
2023/07/01 07:34:31;;;;;;;18.40;8.30;;;16.90;99.90;;;;;;5045081;28;20029;-70
2023/07/01 07:36:57;;;;;;;13.02;7.47;;;16.90;99.90;;;;;;5045957;28;20382;-70
2023/07/01 07:39:22;;;;;;;12.02;7.70;;;16.90;99.90;;;;;;5046094;28;20371;-69
2023/07/01 07:41:49;;;;;;;12.73;8.10;;;17.00;99.90;;;;;;5028156;28;20060;-71
2023/07/01 07:44:15;;;;;;;15.27;8.20;;;16.90;99.90;;;;;;5046207;28;20026;-70
2023/07/01 07:46:42;;;;;;;21.88;8.68;;;17.00;99.90;;;;;;5028300;28;20113;-75
2023/07/01 07:49:07;;;;;;;14.95;7.97;;;17.00;99.90;;;;;;5028355;28;20025;-70
2023/07/01 07:51:33;;;;;;;12.68;7.07;;;17.00;99.90;;;;;;5046054;28;20079;-68
2023/07/01 07:53:59;;;;;;;14.23;7.35;;;16.90;99.90;;;;;;5045958;28;20080;-70
2023/07/01 07:56:25;;;;;;;14.07;7.22;;;16.90;99.90;;;;;;5027595;28;20089;-69
2023/07/01 07:58:50;;;;;;;12.27;6.80;;;16.90;99.90;;;;;;5027821;28;20028;-69
2023/07/01 08:01:16;;;;;;;17.38;8.43;;;17.00;99.90;;;;;;5027727;28;20116;-69
2023/07/01 08:03:41;;;;;;;18.38;7.65;;;17.00;99.90;;;;;;5032528;28;20112;-70
2023/07/01 08:06:07;;;;;;;13.68;6.78;;;17.00;99.90;;;;;;5044937;28;20033;-70
2023/07/01 08:08:33;;;;;;;13.57;7.03;;;17.00;99.90;;;;;;5044856;28;20029;-79
2023/07/01 08:10:59;;;;;;;11.80;7.60;;;16.90;99.90;;;;;;5041686;28;20022;-70
2023/07/01 08:13:25;;;;;;;14.52;7.63;;;16.80;99.90;;;;;;5041458;28;20030;-69
2023/07/01 08:15:51;;;;;;;14.25;8.30;;;16.80;99.90;;;;;;5037142;28;20033;-72
2023/07/01 08:18:16;;;;;;;19.23;8.70;;;16.80;99.90;;;;;;5019426;28;20021;-71
2023/07/01 08:20:44;;;;;;;14.98;8.57;;;16.70;99.90;;;;;;5044396;28;20257;-72
2023/07/01 08:23:10;;;;;;;15.05;9.13;;;16.50;99.90;;;;;;5044652;28;20025;-71
2023/07/01 08:25:36;;;;;;;15.40;9.80;;;16.40;99.90;;;;;;5039893;28;20079;-72
2023/07/01 08:28:01;;;;;;;14.45;9.77;;;16.50;99.90;;;;;;5034864;28;20418;-72
2023/07/01 08:30:27;;;;;;;20.98;10.45;;;16.40;99.90;;;;;;5040082;28;20025;-69
2023/07/01 08:32:52;;;;;;;18.08;11.95;;;16.30;99.90;;;;;;5045239;28;20029;-69
2023/07/01 08:35:18;;;;;;;20.10;12.90;;;16.30;99.90;;;;;;5020848;28;20087;-68
2023/07/01 08:37:44;;;;;;;22.17;14.57;;;16.40;99.90;;;;;;5045079;28;20053;-69
2023/07/01 08:40:10;;;;;;;24.00;17.70;;;16.40;99.90;;;;;;5043263;28;20053;-70
2023/07/01 08:42:48;;;;;;;30.88;15.27;;;16.30;99.90;;;;;;5033190;28;20033;-70
2023/07/01 08:45:14;;;;;;;26.20;15.75;;;16.30;99.90;;;;;;5037734;28;20032;-71
2023/07/01 08:47:40;;;;;;;20.67;15.00;;;16.40;99.90;;;;;;5034687;28;20045;-71
2023/07/01 08:50:07;;;;;;;19.75;15.15;;;16.30;99.90;;;;;;5043760;28;20036;-67
2023/07/01 08:52:41;;;;;;;29.13;15.88;;;16.30;99.90;;;;;;5044483;28;20494;-68
2023/07/01 08:55:10;;;;;;;32.40;18.52;;;16.30;99.90;;;;;;5034810;28;20348;-68
2023/07/01 08:57:37;;;;;;;24.67;17.67;;;16.20;99.90;;;;;;5043306;28;20041;-67
2023/07/01 09:00:04;;;;;;;32.38;19.95;;;16.30;99.90;;;;;;5042485;28;20033;-68
2023/07/01 09:02:31;;;;;;;33.40;21.10;;;16.30;99.90;;;;;;5032769;28;20034;-70
2023/07/01 09:04:57;;;;;;;35.33;22.42;;;16.30;99.90;;;;;;5030790;28;20030;-69
2023/07/01 09:07:23;;;;;;;39.05;23.27;;;16.20;99.90;;;;;;5038112;28;20046;-67
2023/07/01 09:09:48;;;;;;;46.10;25.55;;;16.30;99.90;;;;;;5036087;28;20112;-66
2023/07/01 09:12:14;;;;;;;42.50;24.98;;;16.20;99.90;;;;;;5044392;28;20041;-68
2023/07/01 09:14:58;;;;;;;43.88;26.67;;;16.30;99.90;;;;;;5044679;28;20029;-69
2023/07/01 09:17:33;;;;;;;39.20;24.60;;;16.30;99.90;;;;;;5044320;28;20025;-70
2023/07/01 09:19:59;;;;;;;;;;;16.20;99.90;;;;;;5044485;28;20079;-66
2023/07/01 09:22:25;;;;;;;41.60;21.60;;;16.30;99.90;;;;;;5043772;28;19909;-68
2023/07/01 09:24:51;;;;;;;39.65;22.13;;;16.20;99.90;;;;;;5043878;28;20517;-68
2023/07/01 09:27:17;;;;;;;35.42;20.95;;;16.20;99.90;;;;;;5044008;28;20037;-72
2023/07/01 09:29:42;;;;;;;36.42;22.27;;;16.20;99.90;;;;;;5042496;28;20030;-69
2023/07/01 09:32:08;;;;;;;43.63;22.83;;;16.20;99.90;;;;;;5043682;28;20029;-70
2023/07/01 09:34:55;;;;;;;31.02;18.75;;;16.20;99.90;;;;;;5043615;28;20029;-71
2023/07/01 09:37:22;;;;;;;34.97;22.13;;;16.20;99.90;;;;;;5043518;28;20073;-67
2023/07/01 09:39:49;;;;;;;34.40;21.15;;;16.20;99.90;;;;;;5043337;28;20049;-70
2023/07/01 09:42:16;;;;;;;32.03;19.88;;;16.10;99.90;;;;;;5043835;28;20090;-67
2023/07/01 09:44:43;;;;;;;34.30;18.83;;;16.10;99.90;;;;;;5043118;28;20037;-67
2023/07/01 09:47:10;;;;;;;28.80;18.88;;;16.20;99.90;;;;;;5043724;28;20041;-67
2023/07/01 09:49:39;;;;;;;29.75;19.42;;;16.10;99.90;;;;;;5043694;28;20021;-66
2023/07/01 09:52:05;;;;;;;29.55;20.55;;;16.10;99.90;;;;;;5044045;28;20044;-66
2023/07/01 09:54:32;;;;;;;45.45;24.60;;;16.00;99.90;;;;;;5044272;28;20021;-67
2023/07/01 09:56:59;;;;;;;43.78;24.33;;;16.00;99.90;;;;;;5039626;28;20108;-69
2023/07/01 09:59:26;;;;;;;41.72;22.38;;;16.10;99.90;;;;;;5041824;28;20037;-66
2023/07/01 10:01:54;;;;;;;38.10;21.73;;;16.10;99.90;;;;;;5039767;28;20093;-67
2023/07/01 10:04:25;;;;;;;41.55;21.42;;;16.10;99.90;;;;;;5034970;28;20021;-68
2023/07/01 10:06:50;;;;;;;46.50;21.30;;;16.10;99.90;;;;;;5036021;28;20043;-68
2023/07/01 10:09:16;;;;;;;44.13;23.38;;;16.10;99.90;;;;;;5034628;28;20077;-70
2023/07/01 10:11:42;;;;;;;42.25;22.65;;;16.10;99.90;;;;;;5041196;28;20064;-70
2023/07/01 10:14:09;;;;;;;43.25;25.17;;;16.10;99.90;;;;;;5031495;28;20057;-67
2023/07/01 10:16:45;;;;;;;39.25;23.75;;;16.10;99.90;;;;;;5038396;28;20017;-68
2023/07/01 10:19:31;;;;;;;43.97;25.13;;;16.20;99.90;;;;;;5013928;28;20394;-69
2023/07/01 10:22:23;;;;;;;48.15;26.40;;;16.10;99.90;;;;;;5043306;28;20029;-68
2023/07/01 10:25:04;;;;;;;43.35;23.30;;;16.20;99.90;;;;;;5043164;28;20037;-67
2023/07/01 10:27:42;;;;;;;44.20;23.27;;;16.00;99.90;;;;;;5042901;28;20367;-67
2023/07/01 10:30:09;;;;;;;50.97;26.90;;;16.20;99.90;;;;;;5046780;28;20041;-67
2023/07/01 10:32:35;;;;;;;46.67;27.27;;;16.20;99.90;;;;;;5046681;28;20041;-70
2023/07/01 10:35:03;;;;;;;45.25;25.08;;;16.20;99.90;;;;;;5046452;28;20060;-66
2023/07/01 10:37:31;;;;;;;50.25;27.40;;;16.20;99.90;;;;;;5045663;28;20022;-68
2023/07/01 10:39:58;;;;;;;56.42;29.42;;;16.20;99.90;;;;;;5046105;28;20402;-67
2023/07/01 10:42:31;;;;;;;56.33;31.90;;;16.30;99.90;;;;;;5046608;28;20027;-66
2023/07/01 10:45:12;;;;;;;46.95;29.38;;;16.30;99.90;;;;;;5046740;28;20023;-67
2023/07/01 10:47:45;;;;;;;43.90;26.38;;;16.30;99.90;;;;;;5046162;28;20045;-71
2023/07/01 10:50:15;;;;;;;45.30;27.67;;;16.30;99.90;;;;;;5046834;28;20029;-70
2023/07/01 10:52:55;;;;;;;40.28;25.05;;;16.30;99.90;;;;;;5046554;28;20029;-69
2023/07/01 10:55:38;;;;;;;47.30;27.58;;;16.40;99.90;;;;;;5046178;28;20113;-71
2023/07/01 10:58:19;;;;;;;42.75;24.88;;;16.40;99.90;;;;;;5037993;28;20056;-70
2023/07/01 11:00:45;;;;;;;31.83;20.70;;;16.40;99.90;;;;;;5046091;28;20085;-72
2023/07/01 11:03:32;;;;;;;26.15;16.45;;;16.40;99.90;;;;;;5046587;28;20033;-73
2023/07/01 11:05:58;;;;;;;25.70;16.48;;;16.50;99.90;;;;;;5028291;28;20040;-72
2023/07/01 11:08:25;;;;;;;22.90;15.38;;;16.40;99.90;;;;;;5026054;28;20037;-70
2023/07/01 11:10:51;;;;;;;17.85;12.88;;;16.40;99.90;;;;;;5033893;28;20030;-70
2023/07/01 11:13:18;;;;;;;22.40;13.07;;;16.60;99.90;;;;;;5016290;28;20120;-70
2023/07/01 11:16:09;;;;;;;20.98;13.13;;;16.40;99.90;;;;;;5026077;28;20022;-70
2023/07/01 11:18:41;;;;;;;19.42;13.23;;;16.40;99.90;;;;;;5025917;28;20048;-67
2023/07/01 11:21:12;;;;;;;23.85;13.55;;;16.40;99.90;;;;;;5026594;28;20483;-70
2023/07/01 11:23:42;;;;;;;24.52;14.50;;;16.50;99.90;;;;;;5045422;28;20026;-71
2023/07/01 11:26:08;;;;;;;25.92;15.30;;;16.40;99.90;;;;;;5046805;28;20037;-73
2023/07/01 11:28:35;;;;;;;22.45;14.82;;;16.30;99.90;;;;;;5047541;28;20548;-71
2023/07/01 11:31:24;;;;;;;26.08;17.00;;;16.40;99.90;;;;;;5065816;28;20082;-72
2023/07/01 11:33:51;;;;;;;34.33;18.73;;;16.50;99.90;;;;;;5047647;28;20025;-73
2023/07/01 11:36:19;;;;;;;26.85;17.05;;;16.60;99.90;;;;;;5065055;28;20028;-71
2023/07/01 11:38:46;;;;;;;33.85;20.83;;;16.40;99.90;;;;;;5047613;28;20041;-71
2023/07/01 11:41:20;;;;;;;33.53;21.50;;;16.50;99.90;;;;;;5064539;28;20055;-69
2023/07/01 11:43:46;;;;;;;;;;;16.60;99.90;;;;;;5065944;28;20025;-71
2023/07/01 11:46:13;;;;;;;41.33;23.23;;;16.60;99.90;;;;;;5065761;28;19924;-71
2023/07/01 11:48:40;;;;;;;42.17;25.02;;;16.70;99.90;;;;;;5065411;28;20029;-69
2023/07/01 11:51:06;;;;;;;42.38;24.88;;;16.60;99.90;;;;;;5065176;28;20021;-71
2023/07/01 11:53:31;;;;;;;39.67;22.63;;;16.60;99.90;;;;;;5065350;28;20548;-70
2023/07/01 11:55:58;;;;;;;37.60;20.90;;;16.60;99.90;;;;;;5050366;28;20034;-71
2023/07/01 11:58:32;;;;;;;26.35;17.08;;;16.70;99.90;;;;;;5044786;28;20030;-72
2023/07/01 12:00:58;;;;;;;20.38;12.95;;;16.70;99.90;;;;;;5041115;28;20041;-69
2023/07/01 12:03:25;;;;;;;19.17;12.60;;;16.70;99.90;;;;;;5044911;28;20482;-72
2023/07/01 12:05:51;;;;;;;18.65;12.20;;;16.70;99.90;;;;;;5044626;28;20112;-68
2023/07/01 12:08:16;;;;;;;22.95;13.55;;;16.70;99.90;;;;;;5035997;28;20039;-69
2023/07/01 12:10:42;;;;;;;29.13;15.80;;;16.70;99.90;;;;;;5065300;28;20466;-70
2023/07/01 12:13:26;;;;;;;23.38;15.02;;;16.80;99.90;;;;;;5065835;28;20081;-71
2023/07/01 12:15:52;;;;;;;;;;;16.80;99.90;;;;;;5066118;28;20052;-73
2023/07/01 12:18:22;;;;;;;34.58;18.80;;;16.80;99.90;;;;;;5065177;28;19948;-69
2023/07/01 12:20:48;;;;;;;33.63;19.23;;;16.90;99.90;;;;;;5065615;28;20057;-71
2023/07/01 12:23:13;;;;;;;39.85;23.60;;;16.90;99.90;;;;;;5065469;28;20028;-71
2023/07/01 12:25:39;;;;;;;35.17;21.88;;;17.00;99.90;;;;;;5052259;28;20026;-69
2023/07/01 12:28:05;;;;;;;39.88;22.67;;;17.00;99.90;;;;;;5045495;28;20038;-70
2023/07/01 12:30:30;;;;;;;32.08;20.40;;;17.00;99.90;;;;;;5043990;28;20025;-72
2023/07/01 12:32:56;;;;;;;33.20;22.00;;;17.00;99.90;;;;;;5045112;28;20052;-69
2023/07/01 12:35:22;;;;;;;36.55;22.88;;;17.10;99.90;;;;;;5045186;28;20037;-70
2023/07/01 12:37:49;;;;;;;29.20;18.92;;;17.00;99.90;;;;;;5043590;28;20064;-72
2023/07/01 12:40:15;;;;;;;35.33;22.10;;;17.00;99.90;;;;;;5044967;28;20050;-71